createdAt,value
2022-08-26T00:00:07.931Z,4.00
2022-08-26T00:03:01.050Z,3.60
2022-08-26T00:05:28.991Z,3.90
2022-08-26T00:07:57.475Z,4.00
2022-08-26T00:10:25.890Z,3.60
2022-08-26T00:12:53.824Z,3.90
2022-08-26T00:15:23.029Z,4.30
2022-08-26T00:17:52.924Z,3.80
2022-08-26T00:20:25.995Z,4.30
2022-08-26T00:22:54.888Z,4.30
2022-08-26T00:25:23.679Z,4.30
2022-08-26T00:27:51.781Z,3.90
2022-08-26T00:30:24.256Z,4.20
2022-08-26T00:32:55.480Z,4.20
2022-08-26T00:35:25.582Z,4.30
2022-08-26T00:37:56.874Z,4.20
2022-08-26T00:40:32.319Z,4.10
2022-08-26T00:43:01.991Z,4.20
2022-08-26T00:45:50.256Z,4.10
2022-08-26T00:48:21.576Z,4.10
2022-08-26T00:51:15.968Z,3.60
2022-08-26T00:53:50.264Z,3.80
2022-08-26T00:56:25.067Z,3.70
2022-08-26T00:58:56.917Z,4.00
2022-08-26T01:01:26.459Z,3.90
2022-08-26T01:03:55.968Z,4.60
2022-08-26T01:06:25.118Z,4.30
2022-08-26T01:08:53.783Z,4.50
2022-08-26T01:11:22.726Z,4.50
2022-08-26T01:13:54.841Z,4.60
2022-08-26T01:16:25.752Z,4.70
2022-08-26T01:18:59.862Z,4.50
2022-08-26T01:22:05.592Z,4.40
2022-08-26T01:24:33.872Z,4.40
2022-08-26T01:27:05.307Z,4.30
2022-08-26T01:29:36.469Z,5.00
2022-08-26T01:32:08.527Z,4.60
2022-08-26T01:34:38.648Z,4.20
2022-08-26T01:37:15.849Z,4.50
2022-08-26T01:39:47.808Z,4.30
2022-08-26T01:42:19.187Z,4.60
2022-08-26T01:45:05.562Z,4.50
2022-08-26T01:47:37.137Z,4.20
2022-08-26T01:50:10.704Z,4.40
2022-08-26T01:52:43.281Z,4.70
2022-08-26T01:55:15.043Z,4.50
2022-08-26T01:58:04.863Z,4.80
2022-08-26T02:00:35.427Z,4.60
2022-08-26T02:03:21.549Z,4.10
2022-08-26T02:06:00.249Z,4.70
2022-08-26T02:08:41.409Z,4.10
2022-08-26T02:11:10.636Z,4.50
2022-08-26T02:13:52.118Z,4.10
2022-08-26T02:16:27.132Z,4.20
2022-08-26T02:18:56.049Z,4.00
2022-08-26T02:21:24.898Z,3.80
2022-08-26T02:23:56.213Z,4.10
2022-08-26T02:26:26.949Z,4.00
2022-08-26T02:29:26.918Z,4.40
2022-08-26T02:31:56.140Z,4.10
2022-08-26T02:34:31.010Z,4.10
2022-08-26T02:37:01.235Z,3.70
2022-08-26T02:39:31.309Z,4.20
2022-08-26T02:41:59.681Z,4.00
2022-08-26T02:44:27.820Z,4.00
2022-08-26T02:46:56.252Z,4.00
2022-08-26T02:49:25.318Z,3.90
2022-08-26T02:51:54.336Z,4.30
2022-08-26T02:54:22.230Z,4.20
2022-08-26T02:56:51.415Z,4.10
2022-08-26T02:59:19.327Z,4.00
2022-08-26T03:01:52.807Z,4.30
2022-08-26T03:04:25.961Z,4.30
2022-08-26T03:06:55.586Z,4.10
2022-08-26T03:09:24.013Z,4.50
2022-08-26T03:11:52.638Z,4.10
2022-08-26T03:14:21.041Z,4.30
2022-08-26T03:16:50.944Z,3.80
2022-08-26T03:19:19.002Z,3.90
2022-08-26T03:21:47.485Z,4.10
2022-08-26T03:24:17.028Z,3.90
2022-08-26T03:26:52.157Z,3.90
2022-08-26T03:29:40.340Z,4.20
2022-08-26T03:32:09.711Z,3.90
2022-08-26T03:34:38.705Z,4.20
2022-08-26T03:37:06.784Z,4.00
2022-08-26T03:39:35.025Z,3.70
2022-08-26T03:42:02.855Z,4.00
2022-08-26T03:44:31.600Z,4.20
2022-08-26T03:47:00.657Z,4.00
2022-08-26T03:49:31.654Z,3.90
2022-08-26T03:51:59.729Z,4.00
2022-08-26T03:54:27.554Z,3.90
2022-08-26T03:56:55.582Z,4.50
2022-08-26T03:59:25.146Z,4.40
2022-08-26T04:01:53.038Z,4.30
2022-08-26T04:04:22.590Z,4.70
2022-08-26T04:06:57.383Z,4.50
2022-08-26T04:09:27.640Z,4.60
2022-08-26T04:11:58.673Z,4.40
2022-08-26T04:14:28.259Z,4.70
2022-08-26T04:16:56.806Z,5.20
2022-08-26T04:19:26.031Z,4.70
2022-08-26T04:21:54.582Z,4.70
2022-08-26T04:24:24.929Z,5.10
2022-08-26T04:26:53.972Z,4.60
2022-08-26T04:29:24.609Z,5.00
2022-08-26T04:31:57.294Z,4.70
2022-08-26T04:34:28.447Z,5.00
2022-08-26T04:36:58.075Z,4.50
2022-08-26T04:39:27.654Z,5.20
2022-08-26T04:41:57.647Z,4.90
2022-08-26T04:44:29.816Z,4.70
2022-08-26T04:46:58.630Z,4.90
2022-08-26T04:49:27.706Z,4.80
2022-08-26T04:51:55.904Z,4.70
2022-08-26T04:54:23.963Z,4.80
2022-08-26T04:56:54.261Z,4.60
2022-08-26T04:59:22.088Z,4.80
2022-08-26T05:01:52.313Z,4.80
2022-08-26T05:04:21.202Z,5.20
2022-08-26T05:06:50.410Z,5.40
2022-08-26T05:09:18.858Z,4.40
2022-08-26T05:11:48.585Z,4.70
2022-08-26T05:14:23.271Z,4.80
2022-08-26T05:16:52.368Z,4.80
2022-08-26T05:19:21.183Z,5.00
2022-08-26T05:21:49.738Z,4.30
2022-08-26T05:24:18.361Z,4.70
2022-08-26T05:26:47.295Z,4.60
2022-08-26T05:29:16.775Z,4.70
2022-08-26T05:31:45.023Z,4.80
2022-08-26T05:34:13.135Z,4.70
2022-08-26T05:36:41.436Z,4.70
2022-08-26T05:39:10.509Z,5.00
2022-08-26T05:41:41.147Z,4.60
2022-08-26T05:44:11.419Z,4.70
2022-08-26T05:46:41.600Z,4.30
2022-08-26T05:49:10.179Z,4.30
2022-08-26T05:51:45.151Z,4.70
2022-08-26T05:54:14.236Z,3.90
2022-08-26T05:56:53.004Z,4.20
2022-08-26T05:59:23.916Z,4.30
2022-08-26T06:01:55.192Z,3.90
2022-08-26T06:04:26.921Z,4.00
2022-08-26T06:06:57.025Z,4.00
2022-08-26T06:09:26.738Z,3.60
2022-08-26T06:11:56.038Z,4.80
2022-08-26T06:14:24.017Z,3.90
2022-08-26T06:16:51.976Z,3.80
2022-08-26T06:19:22.111Z,3.70
2022-08-26T06:21:51.367Z,4.10
2022-08-26T06:24:41.264Z,4.30
2022-08-26T06:27:13.779Z,4.50
2022-08-26T06:29:43.011Z,4.40
2022-08-26T06:32:11.659Z,4.60
2022-08-26T06:34:39.495Z,4.30
2022-08-26T06:37:09.008Z,4.50
2022-08-26T06:39:41.239Z,4.50
2022-08-26T06:42:10.823Z,3.80
2022-08-26T06:44:39.025Z,4.20
2022-08-26T06:47:09.045Z,3.90
2022-08-26T06:49:37.281Z,4.00
2022-08-26T06:52:05.093Z,3.70
2022-08-26T06:54:32.893Z,4.10
2022-08-26T06:57:01.267Z,4.10
2022-08-26T06:59:31.305Z,3.60
2022-08-26T07:01:59.372Z,4.10
2022-08-26T07:04:28.123Z,4.20
2022-08-26T07:06:56.836Z,4.20
2022-08-26T07:09:30.394Z,4.00
2022-08-26T07:11:59.268Z,4.30
2022-08-26T07:14:27.054Z,3.90
2022-08-26T07:16:54.837Z,3.80
2022-08-26T07:19:30.195Z,4.00
2022-08-26T07:22:03.499Z,4.10
2022-08-26T07:24:35.053Z,4.00
2022-08-26T07:27:05.915Z,4.10
2022-08-26T07:29:36.075Z,4.00
2022-08-26T07:32:04.252Z,4.40
2022-08-26T07:34:33.732Z,4.20
2022-08-26T07:37:01.941Z,4.20
2022-08-26T07:39:31.426Z,4.20
2022-08-26T07:42:07.753Z,4.60
2022-08-26T07:44:37.253Z,4.60
2022-08-26T07:47:10.453Z,4.40
2022-08-26T07:49:56.731Z,4.40
2022-08-26T07:52:27.486Z,5.40
2022-08-26T07:54:58.267Z,4.30
2022-08-26T07:57:27.806Z,4.00
2022-08-26T07:59:56.294Z,3.80
2022-08-26T08:02:25.726Z,4.60
2022-08-26T08:04:54.847Z,6.10
2022-08-26T08:07:38.296Z,3.70
2022-08-26T08:10:11.320Z,4.00
2022-08-26T08:12:40.705Z,4.10
2022-08-26T08:15:13.347Z,4.10
2022-08-26T08:17:43.528Z,4.00
2022-08-26T08:20:13.651Z,4.30
2022-08-26T08:22:43.276Z,3.90
2022-08-26T08:25:12.125Z,4.00
2022-08-26T08:27:42.934Z,4.10
2022-08-26T08:30:13.901Z,4.20
2022-08-26T08:32:45.739Z,3.70
2022-08-26T08:35:18.428Z,4.20
2022-08-26T08:37:46.706Z,4.30
2022-08-26T08:40:18.798Z,3.70
2022-08-26T08:43:07.156Z,3.80
2022-08-26T08:45:38.414Z,3.90
2022-08-26T08:48:16.282Z,3.10
2022-08-26T08:50:49.320Z,3.30
2022-08-26T08:53:30.756Z,3.90
2022-08-26T08:56:23.880Z,3.80
2022-08-26T08:59:07.358Z,3.80
2022-08-26T09:01:52.465Z,3.50
2022-08-26T09:05:04.473Z,3.40
2022-08-26T09:07:50.508Z,3.70
2022-08-26T09:10:21.646Z,3.70
2022-08-26T09:12:52.366Z,3.60
2022-08-26T09:15:30.188Z,3.80
2022-08-26T09:18:27.012Z,3.60
2022-08-26T09:21:00.220Z,3.80
2022-08-26T09:23:28.201Z,3.40
2022-08-26T09:26:03.675Z,3.60
2022-08-26T09:28:32.515Z,4.20
2022-08-26T09:31:39.224Z,3.30
2022-08-26T09:34:22.596Z,3.80
2022-08-26T09:36:51.775Z,3.90
2022-08-26T09:39:28.371Z,3.70
2022-08-26T09:42:23.050Z,4.30
2022-08-26T09:45:04.073Z,4.00
2022-08-26T09:47:37.026Z,3.90
2022-08-26T09:50:28.953Z,3.70
2022-08-26T09:53:17.242Z,4.00
2022-08-26T09:55:52.381Z,4.10
2022-08-26T09:58:43.487Z,3.70
2022-08-26T10:01:36.174Z,3.80
2022-08-26T10:04:10.395Z,4.00
2022-08-26T10:06:54.954Z,3.70
2022-08-26T10:09:25.806Z,3.90
2022-08-26T10:11:57.197Z,3.90
2022-08-26T10:14:33.547Z,4.10
2022-08-26T10:17:22.234Z,3.90
2022-08-26T10:19:59.881Z,3.80
2022-08-26T10:22:37.208Z,3.80
2022-08-26T10:25:12.073Z,3.80
2022-08-26T10:27:53.441Z,4.30
2022-08-26T10:30:24.605Z,4.70
2022-08-26T10:33:00.925Z,3.90
2022-08-26T10:35:30.923Z,4.20
2022-08-26T10:38:04.735Z,4.40
2022-08-26T10:41:10.671Z,4.00
2022-08-26T10:43:55.987Z,4.10
2022-08-26T10:46:28.587Z,3.30
2022-08-26T10:49:03.329Z,3.70
2022-08-26T10:51:42.327Z,3.70
2022-08-26T10:54:22.155Z,4.00
2022-08-26T10:57:17.557Z,3.90
2022-08-26T11:00:30.294Z,3.70
2022-08-26T11:03:31.642Z,3.40
2022-08-26T11:06:18.443Z,4.40
2022-08-26T11:09:32.487Z,4.80
2022-08-26T11:12:05.134Z,4.00
2022-08-26T11:14:42.010Z,4.50
2022-08-26T11:17:46.785Z,4.00
2022-08-26T11:20:23.820Z,4.20
2022-08-26T11:22:54.510Z,4.10
2022-08-26T11:25:29.755Z,4.30
2022-08-26T11:28:00.497Z,4.10
2022-08-26T11:30:38.942Z,4.00
2022-08-26T11:33:08.601Z,4.30
2022-08-26T11:35:37.429Z,4.40
2022-08-26T11:38:22.864Z,4.70
2022-08-26T11:41:08.951Z,4.50
2022-08-26T11:43:40.042Z,4.20
2022-08-26T11:46:11.683Z,4.40
2022-08-26T11:48:42.622Z,4.40
2022-08-26T11:51:24.901Z,4.60
2022-08-26T11:54:12.078Z,4.20
2022-08-26T11:56:42.402Z,4.20
2022-08-26T11:59:15.640Z,4.50
2022-08-26T12:01:46.051Z,4.30
2022-08-26T12:04:28.704Z,4.60
2022-08-26T12:06:58.813Z,4.40
2022-08-26T12:09:30.499Z,4.50
2022-08-26T12:12:18.030Z,4.80
2022-08-26T12:14:45.827Z,4.40
2022-08-26T12:17:19.810Z,4.50
2022-08-26T12:19:50.505Z,4.30
2022-08-26T12:22:27.076Z,4.40
2022-08-26T12:25:00.053Z,4.90
2022-08-26T12:27:32.606Z,4.50
2022-08-26T12:30:14.338Z,4.50
2022-08-26T12:33:21.933Z,4.50
2022-08-26T12:35:56.228Z,4.30
2022-08-26T12:38:26.882Z,5.10
2022-08-26T12:40:57.076Z,4.60
2022-08-26T12:43:46.062Z,4.50
2022-08-26T12:46:24.518Z,4.20
2022-08-26T12:48:52.648Z,4.20
2022-08-26T12:51:25.329Z,4.50
2022-08-26T12:53:54.429Z,4.10
2022-08-26T12:56:27.942Z,4.40
2022-08-26T12:59:28.240Z,4.10
2022-08-26T13:01:56.309Z,3.80
2022-08-26T13:04:38.109Z,4.30
2022-08-26T13:07:14.930Z,4.20
2022-08-26T13:09:43.115Z,4.40
2022-08-26T13:12:12.973Z,4.30
2022-08-26T13:14:41.258Z,4.50
2022-08-26T13:17:09.337Z,4.30
2022-08-26T13:19:37.404Z,4.00
2022-08-26T13:22:06.400Z,3.80
2022-08-26T13:24:38.235Z,4.00
2022-08-26T13:27:09.764Z,4.40
2022-08-26T13:29:38.303Z,4.10
2022-08-26T13:32:08.120Z,4.10
2022-08-26T13:34:37.627Z,4.40
2022-08-26T13:37:06.831Z,4.30
2022-08-26T13:39:35.005Z,4.60
2022-08-26T13:42:03.088Z,4.30
2022-08-26T13:44:31.055Z,5.10
2022-08-26T13:46:59.243Z,4.70
2022-08-26T13:49:27.412Z,4.50
2022-08-26T13:51:55.385Z,5.00
2022-08-26T13:54:23.460Z,5.10
2022-08-26T13:56:51.944Z,5.00
2022-08-26T13:59:19.921Z,5.30
2022-08-26T14:01:48.302Z,5.10
2022-08-26T14:04:16.274Z,5.40
2022-08-26T14:06:51.619Z,5.60
2022-08-26T14:09:19.696Z,5.70
2022-08-26T14:11:54.646Z,5.40
2022-08-26T14:14:23.932Z,5.20
2022-08-26T14:16:59.394Z,5.50
2022-08-26T14:19:30.338Z,5.30
2022-08-26T14:22:01.098Z,5.10
2022-08-26T14:24:29.738Z,5.50
2022-08-26T14:26:57.813Z,5.40
2022-08-26T14:29:26.505Z,5.30
2022-08-26T14:31:57.189Z,5.60
2022-08-26T14:34:25.827Z,5.30
2022-08-26T14:36:53.903Z,5.60
2022-08-26T14:39:22.539Z,5.20
2022-08-26T14:41:54.981Z,4.90
2022-08-26T14:44:29.639Z,5.10
2022-08-26T14:47:01.195Z,5.40
2022-08-26T14:49:31.371Z,5.30
2022-08-26T14:51:59.753Z,5.20
2022-08-26T14:54:29.518Z,5.60
2022-08-26T14:57:04.024Z,5.60
2022-08-26T14:59:35.909Z,5.40
2022-08-26T15:02:05.458Z,5.40
2022-08-26T15:04:33.742Z,5.60
2022-08-26T15:07:02.697Z,5.70
2022-08-26T15:09:33.321Z,5.10
2022-08-26T15:12:01.963Z,5.30
2022-08-26T15:14:32.952Z,5.40
2022-08-26T15:17:01.288Z,5.60
2022-08-26T15:19:29.360Z,5.60
2022-08-26T15:21:57.335Z,5.60
2022-08-26T15:24:28.970Z,5.50
2022-08-26T15:26:57.785Z,5.40
2022-08-26T15:29:26.063Z,5.70
2022-08-26T15:31:55.330Z,5.40
2022-08-26T15:34:25.597Z,5.80
2022-08-26T15:36:54.387Z,5.60
2022-08-26T15:39:22.358Z,5.90
2022-08-26T15:41:51.252Z,5.10
2022-08-26T15:44:19.944Z,4.90
2022-08-26T15:46:49.524Z,5.40
2022-08-26T15:49:18.832Z,5.00
2022-08-26T15:51:50.565Z,4.80
2022-08-26T15:54:21.707Z,5.00
2022-08-26T15:56:52.564Z,5.10
2022-08-26T15:59:22.526Z,5.00
2022-08-26T16:01:51.801Z,4.70
2022-08-26T16:04:21.023Z,4.90
2022-08-26T16:06:51.600Z,4.70
2022-08-26T16:09:23.962Z,5.00
2022-08-26T16:11:56.507Z,5.00
2022-08-26T16:14:25.298Z,4.80
2022-08-26T16:16:53.623Z,5.40
2022-08-26T16:19:22.417Z,4.80
2022-08-26T16:21:51.676Z,5.10
2022-08-26T16:24:24.767Z,5.10
2022-08-26T16:26:55.502Z,5.60
2022-08-26T16:29:24.721Z,5.40
2022-08-26T16:31:54.881Z,5.00
2022-08-26T16:34:23.222Z,5.30
2022-08-26T16:36:51.285Z,5.00
2022-08-26T16:39:19.360Z,4.80
2022-08-26T16:41:47.334Z,4.70
2022-08-26T16:44:15.411Z,4.70
2022-08-26T16:46:43.528Z,4.70
2022-08-26T16:49:11.560Z,4.40
2022-08-26T16:51:39.633Z,4.60
2022-08-26T16:54:09.001Z,4.90
2022-08-26T16:56:37.628Z,5.30
2022-08-26T16:59:07.775Z,4.20
2022-08-26T17:01:35.819Z,4.70
2022-08-26T17:04:04.361Z,4.60
2022-08-26T17:06:32.391Z,4.50
2022-08-26T17:09:00.306Z,4.90
2022-08-26T17:11:28.439Z,4.30
2022-08-26T17:13:57.229Z,4.50
2022-08-26T17:16:27.070Z,4.40
2022-08-26T17:18:57.887Z,4.10
2022-08-26T17:21:27.594Z,4.50
2022-08-26T17:23:56.502Z,4.60
2022-08-26T17:26:24.380Z,4.50
2022-08-26T17:28:52.830Z,4.80
2022-08-26T17:31:22.099Z,4.50
2022-08-26T17:33:53.532Z,4.40
2022-08-26T17:36:28.127Z,4.80
2022-08-26T17:38:57.709Z,4.50
2022-08-26T17:41:27.022Z,4.50
2022-08-26T17:43:54.954Z,4.50
2022-08-26T17:46:23.440Z,4.70
2022-08-26T17:48:51.652Z,5.00
2022-08-26T17:51:20.798Z,4.50
2022-08-26T17:53:49.141Z,4.50
2022-08-26T17:56:20.247Z,4.90
2022-08-26T17:58:51.211Z,4.50
2022-08-26T18:01:26.299Z,5.10
2022-08-26T18:04:00.187Z,4.70
2022-08-26T18:06:30.736Z,4.60
2022-08-26T18:09:00.184Z,4.60
2022-08-26T18:11:28.440Z,5.00
2022-08-26T18:13:56.427Z,4.50
2022-08-26T18:16:24.876Z,4.90
2022-08-26T18:18:53.780Z,5.10
2022-08-26T18:21:25.274Z,4.90
2022-08-26T18:23:54.224Z,4.80
2022-08-26T18:26:33.449Z,5.20
2022-08-26T18:29:01.974Z,4.90
2022-08-26T18:31:30.733Z,4.80
2022-08-26T18:34:00.868Z,5.20
2022-08-26T18:36:35.836Z,5.40
2022-08-26T18:39:05.649Z,5.30
2022-08-26T18:41:39.643Z,5.30
2022-08-26T18:44:12.950Z,5.30
2022-08-26T18:46:43.383Z,5.40
2022-08-26T18:49:16.197Z,5.40
2022-08-26T18:51:45.448Z,5.60
2022-08-26T18:54:13.841Z,5.50
2022-08-26T18:56:42.529Z,5.30
2022-08-26T18:59:11.572Z,5.70
2022-08-26T19:01:42.054Z,5.60
2022-08-26T19:04:14.141Z,6.00
2022-08-26T19:06:47.423Z,5.60
2022-08-26T19:09:17.890Z,5.50
2022-08-26T19:11:47.005Z,5.40
2022-08-26T19:14:18.242Z,5.90
2022-08-26T19:16:49.619Z,5.60
2022-08-26T19:19:18.282Z,5.90
2022-08-26T19:21:47.174Z,5.70
2022-08-26T19:24:17.730Z,5.60
2022-08-26T19:26:57.887Z,5.80
2022-08-26T19:29:29.549Z,6.20
2022-08-26T19:31:58.766Z,5.70
2022-08-26T19:34:26.621Z,6.10
2022-08-26T19:36:56.976Z,5.50
2022-08-26T19:39:26.430Z,5.90
2022-08-26T19:41:54.600Z,6.30
2022-08-26T19:44:41.836Z,6.20
2022-08-26T19:47:11.223Z,5.90
2022-08-26T19:49:39.424Z,5.60
2022-08-26T19:52:08.084Z,6.20
2022-08-26T19:54:36.261Z,5.90
2022-08-26T19:57:05.018Z,6.60
2022-08-26T19:59:33.196Z,6.00
2022-08-26T20:02:01.981Z,5.80
2022-08-26T20:04:31.510Z,6.00
2022-08-26T20:07:00.916Z,6.20
2022-08-26T20:09:31.272Z,5.80
2022-08-26T20:11:59.449Z,6.00
2022-08-26T20:14:28.545Z,5.80
2022-08-26T20:16:56.912Z,6.20
2022-08-26T20:19:43.935Z,6.20
2022-08-26T20:22:12.940Z,6.30
2022-08-26T20:24:41.223Z,5.70
2022-08-26T20:27:09.910Z,6.10
2022-08-26T20:29:39.011Z,6.30
2022-08-26T20:32:08.104Z,6.40
2022-08-26T20:34:37.104Z,6.50
2022-08-26T20:37:05.386Z,6.30
2022-08-26T20:39:33.461Z,6.40
2022-08-26T20:42:01.331Z,6.70
2022-08-26T20:44:29.406Z,6.50
2022-08-26T20:46:59.325Z,6.30
2022-08-26T20:49:28.833Z,6.10
2022-08-26T20:51:56.806Z,6.00
2022-08-26T20:54:28.521Z,6.20
2022-08-26T20:56:58.532Z,5.90
2022-08-26T20:59:27.176Z,6.40
2022-08-26T21:01:55.352Z,6.10
2022-08-26T21:04:25.259Z,6.10
2022-08-26T21:06:54.640Z,6.70
2022-08-26T21:09:24.437Z,6.30
2022-08-26T21:11:54.443Z,6.40
2022-08-26T21:14:25.798Z,6.50
2022-08-26T21:16:54.591Z,6.30
2022-08-26T21:19:22.782Z,6.10
2022-08-26T21:21:51.012Z,6.40
2022-08-26T21:24:19.493Z,6.20
2022-08-26T21:26:47.671Z,6.20
2022-08-26T21:29:15.701Z,6.20
2022-08-26T21:31:46.608Z,6.00
2022-08-26T21:34:18.063Z,6.50
2022-08-26T21:36:47.907Z,6.60
2022-08-26T21:39:17.002Z,7.60
2022-08-26T21:41:47.408Z,7.20
2022-08-26T21:44:16.925Z,6.80
2022-08-26T21:46:46.343Z,7.20
2022-08-26T21:49:18.466Z,7.80
2022-08-26T21:51:48.492Z,6.80
2022-08-26T21:54:18.271Z,7.50
2022-08-26T21:56:47.811Z,7.10
2022-08-26T21:59:18.955Z,7.30
2022-08-26T22:01:47.758Z,7.30
2022-08-26T22:04:16.436Z,6.80
2022-08-26T22:06:47.708Z,7.30
2022-08-26T22:09:19.090Z,6.70
2022-08-26T22:11:47.623Z,6.80
2022-08-26T22:14:17.391Z,7.20
2022-08-26T22:16:50.162Z,6.60
2022-08-26T22:19:20.446Z,6.70
2022-08-26T22:21:53.583Z,7.10
2022-08-26T22:24:23.756Z,7.00
2022-08-26T22:26:52.859Z,7.30
2022-08-26T22:29:21.344Z,6.80
2022-08-26T22:31:49.454Z,7.40
2022-08-26T22:34:19.748Z,6.80
2022-08-26T22:36:49.359Z,6.90
2022-08-26T22:39:21.225Z,7.30
2022-08-26T22:41:50.221Z,6.90
2022-08-26T22:44:19.522Z,7.30
2022-08-26T22:46:48.621Z,6.90
2022-08-26T22:49:17.620Z,7.10
2022-08-26T22:51:46.920Z,7.40
2022-08-26T22:54:15.918Z,6.90
2022-08-26T22:56:45.121Z,7.40
2022-08-26T22:59:13.502Z,6.80
2022-08-26T23:01:43.418Z,7.10
2022-08-26T23:04:12.108Z,7.00
2022-08-26T23:06:43.334Z,7.00
2022-08-26T23:09:18.720Z,7.30
2022-08-26T23:11:48.644Z,6.70
2022-08-26T23:14:18.742Z,7.20
2022-08-26T23:16:47.886Z,7.30
2022-08-26T23:19:18.830Z,7.00
2022-08-26T23:21:47.369Z,7.20
2022-08-26T23:24:17.403Z,6.90
2022-08-26T23:26:45.768Z,7.20
2022-08-26T23:29:15.751Z,7.10
2022-08-26T23:31:44.657Z,6.60
2022-08-26T23:34:43.022Z,7.60
2022-08-26T23:37:11.027Z,7.60
2022-08-26T23:39:38.893Z,7.90
2022-08-26T23:42:08.323Z,7.50
2022-08-26T23:44:36.988Z,7.30
2022-08-26T23:47:06.303Z,7.30
2022-08-26T23:49:34.572Z,6.80
2022-08-26T23:52:22.555Z,7.10
2022-08-26T23:54:51.296Z,7.60
2022-08-26T23:57:21.248Z,7.30
2022-08-26T23:59:49.698Z,7.40
